createdAt,value
2023-02-26T07:01:37.493Z,0.12
2023-02-26T07:04:40.067Z,-0.13
2023-02-26T07:07:42.869Z,-0.28
2023-02-26T07:10:46.185Z,0.32
2023-02-26T07:13:48.838Z,0.93
2023-02-26T07:16:52.687Z,0.82
2023-02-26T07:19:55.163Z,0.46
2023-02-26T07:22:59.694Z,0.91
2023-02-26T07:26:02.283Z,1.08
2023-02-26T07:29:04.729Z,1.37
2023-02-26T07:32:08.646Z,1.04
2023-02-26T07:35:11.759Z,0.68
2023-02-26T07:38:14.240Z,0.36
2023-02-26T07:41:16.775Z,0.25
2023-02-26T07:44:19.191Z,0.72
2023-02-26T07:47:23.104Z,0.88
2023-02-26T07:50:25.870Z,1.23
2023-02-26T07:53:28.287Z,1.60
2023-02-26T07:56:31.125Z,1.43
2023-02-26T07:59:33.612Z,0.83
2023-02-26T08:02:37.389Z,0.69
2023-02-26T08:05:39.956Z,0.38
2023-02-26T08:08:42.391Z,0.51
2023-02-26T08:11:44.880Z,0.40
2023-02-26T08:14:47.916Z,0.42
2023-02-26T08:17:53.144Z,0.36
2023-02-26T08:20:55.739Z,0.27
2023-02-26T08:23:58.438Z,0.34
2023-02-26T08:27:00.901Z,0.34
2023-02-26T08:30:03.604Z,0.48
2023-02-26T08:33:07.369Z,0.53
2023-02-26T08:36:10.682Z,0.56
2023-02-26T08:39:13.106Z,0.69
2023-02-26T08:42:16.374Z,0.72
2023-02-26T08:45:19.071Z,0.83
2023-02-26T08:48:23.452Z,1.03
2023-02-26T08:51:26.206Z,1.14
2023-02-26T08:54:28.901Z,1.31
2023-02-26T08:57:31.336Z,1.54
2023-02-26T09:00:34.018Z,1.57
2023-02-26T09:03:37.971Z,1.80
2023-02-26T09:06:40.401Z,1.99
2023-02-26T09:09:42.879Z,2.00
2023-02-26T09:12:46.673Z,1.98
2023-02-26T09:15:50.524Z,2.16
2023-02-26T09:18:54.311Z,2.35
2023-02-26T09:21:56.875Z,2.50
2023-02-26T09:24:59.421Z,2.40
2023-02-26T09:28:02.075Z,2.22
2023-02-26T09:31:07.606Z,2.72
2023-02-26T09:34:12.563Z,2.46
2023-02-26T09:37:15.049Z,2.54
2023-02-26T09:40:25.658Z,2.51
2023-02-26T09:43:55.065Z,2.63
2023-02-26T09:47:05.088Z,2.23
2023-02-26T09:50:16.874Z,1.93
2023-02-26T09:53:22.702Z,2.31
2023-02-26T09:56:27.905Z,1.68
2023-02-26T09:59:34.529Z,2.32
2023-02-26T10:02:44.633Z,2.11
2023-02-26T10:06:06.864Z,2.64
2023-02-26T10:09:25.915Z,2.80
2023-02-26T10:12:30.095Z,2.35
2023-02-26T10:15:38.867Z,2.46
2023-02-26T10:18:47.302Z,2.59
2023-02-26T10:21:54.514Z,2.26
2023-02-26T10:25:01.460Z,2.25
2023-02-26T10:28:18.671Z,2.10
2023-02-26T10:31:28.073Z,2.27
2023-02-26T10:34:36.044Z,2.09
2023-02-26T10:37:47.986Z,1.72
2023-02-26T10:40:52.073Z,2.55
2023-02-26T10:44:04.330Z,2.29
2023-02-26T10:47:18.241Z,2.92
2023-02-26T10:50:23.312Z,2.28
2023-02-26T10:53:29.754Z,2.43
2023-02-26T10:56:33.934Z,2.98
2023-02-26T10:59:36.408Z,3.88
2023-02-26T11:02:41.126Z,2.65
2023-02-26T11:05:43.582Z,1.92
2023-02-26T11:08:50.535Z,2.43
2023-02-26T11:11:55.109Z,3.43
2023-02-26T11:14:57.531Z,2.88
2023-02-26T11:18:01.113Z,2.26
2023-02-26T11:21:06.842Z,1.82
2023-02-26T11:24:15.765Z,1.76
2023-02-26T11:27:22.818Z,2.59
2023-02-26T11:30:27.497Z,2.11
2023-02-26T11:33:35.284Z,1.82
2023-02-26T11:36:40.650Z,2.07
2023-02-26T11:39:45.247Z,3.10
2023-02-26T11:42:53.629Z,2.76
2023-02-26T11:46:00.696Z,2.36
2023-02-26T11:49:03.264Z,1.93
2023-02-26T11:52:17.986Z,2.36
2023-02-26T11:55:29.537Z,2.31
2023-02-26T11:58:38.288Z,3.02
2023-02-26T12:05:07.894Z,2.19
2023-02-26T12:08:19.784Z,1.93
2023-02-26T12:11:31.560Z,1.93
2023-02-26T12:14:48.996Z,1.93
2023-02-26T12:18:04.350Z,2.19
2023-02-26T12:21:33.367Z,2.74
2023-02-26T12:25:06.483Z,3.17
2023-02-26T12:28:41.195Z,3.19
2023-02-26T12:32:16.237Z,2.76
2023-02-26T12:35:33.342Z,1.98
2023-02-26T12:39:01.675Z,2.40
2023-02-26T12:42:21.864Z,3.03
2023-02-26T12:45:53.998Z,2.84
2023-02-26T12:49:07.319Z,2.34
2023-02-26T12:52:41.493Z,1.99
2023-02-26T12:55:55.456Z,2.47
2023-02-26T12:59:13.933Z,3.18
2023-02-26T13:02:55.138Z,2.82
2023-02-26T13:06:16.947Z,2.24
2023-02-26T13:09:31.856Z,1.96
2023-02-26T13:12:43.581Z,2.05
2023-02-26T13:15:57.293Z,2.58
2023-02-26T13:19:08.916Z,2.67
2023-02-26T13:22:19.696Z,2.36
2023-02-26T13:25:26.744Z,2.64
2023-02-26T13:28:46.684Z,2.35
2023-02-26T13:31:54.439Z,2.03
2023-02-26T13:35:00.935Z,1.89
2023-02-26T13:38:22.494Z,2.29
2023-02-26T13:41:35.789Z,3.04
2023-02-26T13:44:50.305Z,2.61
2023-02-26T13:48:17.989Z,2.44
2023-02-26T13:51:30.446Z,2.38
2023-02-26T13:54:45.470Z,2.32
2023-02-26T13:57:52.331Z,2.27
2023-02-26T14:01:02.254Z,2.09
2023-02-26T14:04:23.209Z,2.10
2023-02-26T14:07:47.626Z,3.31
2023-02-26T14:10:59.524Z,2.99
2023-02-26T14:14:12.998Z,2.40
2023-02-26T14:17:49.275Z,2.37
2023-02-26T14:20:52.134Z,2.07
2023-02-26T14:23:58.825Z,2.02
2023-02-26T14:27:25.740Z,1.96
2023-02-26T14:30:31.088Z,1.96
2023-02-26T14:33:40.903Z,2.04
2023-02-26T14:36:48.040Z,2.44
2023-02-26T14:39:55.336Z,2.74
2023-02-26T14:43:01.854Z,2.22
2023-02-26T14:46:05.929Z,2.04
2023-02-26T14:49:18.230Z,1.97
2023-02-26T14:52:37.448Z,1.92
2023-02-26T14:55:56.311Z,2.02
2023-02-26T14:59:16.891Z,2.03
2023-02-26T15:02:31.772Z,2.01
2023-02-26T15:05:45.502Z,1.93
2023-02-26T15:09:02.076Z,2.04
2023-02-26T15:12:16.359Z,1.97
2023-02-26T15:15:42.333Z,1.95
2023-02-26T15:19:00.166Z,1.81
2023-02-26T15:22:18.075Z,1.72
2023-02-26T15:25:29.550Z,1.62
2023-02-26T15:28:35.601Z,1.61
2023-02-26T15:31:43.859Z,1.52
2023-02-26T15:34:48.779Z,1.52
2023-02-26T15:37:54.995Z,1.45
2023-02-26T15:41:03.460Z,1.40
2023-02-26T15:44:10.686Z,1.42
2023-02-26T15:47:17.133Z,1.39
2023-02-26T15:50:30.147Z,1.40
2023-02-26T15:53:36.592Z,1.56
2023-02-26T15:56:41.297Z,1.52
2023-02-26T15:59:47.230Z,1.50
2023-02-26T16:02:51.680Z,1.43
2023-02-26T16:05:56.055Z,1.41
2023-02-26T16:09:00.257Z,1.37
2023-02-26T16:12:07.790Z,1.31
2023-02-26T16:15:15.086Z,1.26
2023-02-26T16:18:24.652Z,1.21
2023-02-26T16:21:32.249Z,1.14
2023-02-26T16:24:35.943Z,1.11
2023-02-26T16:27:39.455Z,1.01
2023-02-26T16:30:46.028Z,0.94
2023-02-26T16:46:34.741Z,0.40
2023-02-26T17:04:39.247Z,-0.32
2023-02-26T17:07:48.887Z,-0.40
2023-02-26T17:10:55.273Z,-0.33
